createdAt,value
2023-01-04T00:00:50.027Z,2.47
2023-01-04T00:03:16.635Z,2.77
2023-01-04T00:05:43.048Z,2.00
2023-01-04T00:08:09.500Z,4.13
2023-01-04T00:10:35.811Z,3.97
2023-01-04T00:13:02.237Z,3.17
2023-01-04T00:15:28.598Z,3.63
2023-01-04T00:17:55.126Z,2.83
2023-01-04T00:20:21.532Z,2.93
2023-01-04T00:22:47.844Z,5.10
2023-01-04T00:25:14.327Z,3.50
2023-01-04T00:27:40.708Z,2.27
2023-01-04T00:30:07.443Z,2.90
2023-01-04T00:32:33.777Z,1.20
2023-01-04T00:35:00.166Z,2.53
2023-01-04T00:37:26.531Z,1.70
2023-01-04T00:39:52.950Z,3.83
2023-01-04T00:42:19.271Z,2.53
2023-01-04T00:44:45.672Z,3.27
2023-01-04T00:47:11.989Z,3.10
2023-01-04T00:49:38.295Z,2.50
2023-01-04T00:52:04.755Z,5.43
2023-01-04T00:54:31.135Z,2.60
2023-01-04T00:56:57.896Z,6.27
2023-01-04T00:59:24.313Z,3.27
2023-01-04T01:01:51.318Z,4.17
2023-01-04T01:04:18.949Z,4.80
2023-01-04T01:06:45.652Z,3.90
2023-01-04T01:09:12.213Z,3.90
2023-01-04T01:11:39.666Z,2.07
2023-01-04T01:14:06.669Z,3.03
2023-01-04T01:19:19.561Z,2.60
2023-01-04T01:21:45.855Z,2.10
2023-01-04T01:24:16.840Z,10.40
2023-01-04T01:26:43.163Z,6.73
2023-01-04T01:29:09.497Z,1.90
2023-01-04T01:31:35.869Z,5.63
2023-01-04T01:34:02.517Z,1.83
2023-01-04T01:36:28.928Z,5.00
2023-01-04T01:38:55.392Z,2.13
2023-01-04T01:41:23.166Z,3.10
2023-01-04T01:43:50.048Z,1.83
2023-01-04T01:46:18.153Z,5.10
2023-01-04T01:48:44.790Z,3.77
2023-01-04T01:51:11.429Z,1.50
2023-01-04T01:53:39.946Z,3.73
2023-01-04T01:56:07.406Z,4.67
2023-01-04T01:58:35.978Z,10.33
2023-01-04T02:01:02.841Z,4.00
2023-01-04T02:03:35.172Z,3.57
2023-01-04T02:06:02.357Z,3.63
2023-01-04T02:08:29.914Z,4.50
2023-01-04T02:10:56.353Z,5.03
2023-01-04T02:13:47.501Z,4.27
2023-01-04T02:16:19.903Z,7.27
2023-01-04T02:18:51.966Z,4.43
2023-01-04T02:21:23.316Z,3.93
2023-01-04T02:23:52.679Z,5.37
2023-01-04T02:26:42.005Z,4.67
2023-01-04T02:29:27.253Z,5.07
2023-01-04T02:32:16.834Z,4.60
2023-01-04T02:34:58.635Z,2.97
2023-01-04T02:37:45.397Z,4.90
2023-01-04T02:40:14.765Z,2.70
2023-01-04T02:43:02.887Z,4.60
2023-01-04T02:45:31.227Z,4.90
2023-01-04T02:48:20.004Z,1.70
2023-01-04T02:50:57.766Z,2.53
2023-01-04T02:53:24.275Z,1.63
2023-01-04T02:55:56.443Z,4.13
2023-01-04T02:58:52.202Z,2.90
2023-01-04T03:01:43.389Z,4.60
2023-01-04T03:04:34.764Z,1.40
2023-01-04T03:07:07.819Z,3.20
2023-01-04T03:09:35.543Z,3.13
2023-01-04T03:12:23.692Z,4.83
2023-01-04T03:15:01.750Z,2.73
2023-01-04T03:17:31.755Z,2.67
2023-01-04T03:19:58.700Z,7.97
2023-01-04T03:22:51.551Z,3.60
2023-01-04T03:25:37.897Z,2.13
2023-01-04T03:28:24.591Z,3.53
2023-01-04T03:31:11.982Z,4.90
2023-01-04T03:33:57.299Z,4.20
2023-01-04T03:36:34.662Z,4.10
2023-01-04T03:39:36.435Z,4.67
2023-01-04T03:42:21.268Z,3.83
2023-01-04T03:45:18.302Z,3.90
2023-01-04T03:48:06.145Z,5.00
2023-01-04T03:50:38.899Z,3.13
2023-01-04T03:53:06.627Z,4.93
2023-01-04T03:55:34.391Z,2.93
2023-01-04T03:58:01.555Z,3.20
2023-01-04T04:00:28.287Z,3.03
2023-01-04T04:03:06.993Z,3.43
2023-01-04T04:05:52.790Z,2.60
2023-01-04T04:08:31.676Z,5.23
2023-01-04T04:11:19.497Z,3.37
2023-01-04T04:13:46.832Z,3.13
2023-01-04T04:16:13.293Z,7.33
2023-01-04T04:18:39.640Z,4.13
2023-01-04T04:21:06.117Z,3.53
2023-01-04T04:23:32.509Z,2.37
2023-01-04T04:25:58.929Z,1.93
2023-01-04T04:28:25.295Z,8.47
2023-01-04T04:30:52.219Z,3.93
2023-01-04T04:33:18.637Z,8.80
2023-01-04T04:35:45.035Z,4.93
2023-01-04T04:38:11.383Z,4.40
2023-01-04T04:40:59.615Z,8.47
2023-01-04T04:43:25.954Z,7.90
2023-01-04T04:45:52.342Z,7.07
2023-01-04T04:48:18.777Z,5.83
2023-01-04T04:50:45.187Z,5.83
2023-01-04T04:53:11.512Z,1.73
2023-01-04T04:55:37.824Z,2.77
2023-01-04T04:58:04.153Z,3.87
2023-01-04T05:00:30.498Z,9.67
2023-01-04T05:03:00.309Z,7.00
2023-01-04T05:05:26.967Z,7.93
2023-01-04T05:07:53.303Z,5.40
2023-01-04T05:10:19.720Z,2.80
2023-01-04T05:13:01.410Z,5.57
2023-01-04T05:15:29.123Z,2.80
2023-01-04T05:17:55.518Z,0.53
2023-01-04T05:20:21.939Z,1.43
2023-01-04T05:22:48.427Z,1.87
2023-01-04T05:25:15.316Z,1.53
2023-01-04T05:27:41.720Z,1.43
2023-01-04T05:30:28.289Z,4.43
2023-01-04T05:32:54.656Z,3.10
2023-01-04T05:35:20.994Z,1.30
2023-01-04T05:37:47.325Z,2.83
2023-01-04T05:40:13.838Z,4.37
2023-01-04T05:42:40.185Z,0.97
2023-01-04T05:45:06.789Z,4.10
2023-01-04T05:47:33.545Z,3.90
2023-01-04T05:49:59.909Z,4.27
2023-01-04T05:52:26.761Z,4.10
2023-01-04T05:54:53.104Z,4.63
2023-01-04T05:57:19.427Z,4.13
2023-01-04T05:59:45.777Z,6.37
2023-01-04T06:02:19.302Z,1.80
2023-01-04T06:04:45.967Z,8.90
2023-01-04T06:07:12.795Z,6.80
2023-01-04T06:09:39.226Z,5.20
2023-01-04T06:12:05.746Z,5.97
2023-01-04T06:14:32.532Z,4.93
2023-01-04T06:16:59.156Z,2.90
2023-01-04T06:19:25.852Z,8.57
2023-01-04T06:21:52.281Z,6.17
2023-01-04T06:24:18.839Z,6.43
2023-01-04T06:26:45.273Z,10.40
2023-01-04T06:29:11.669Z,4.37
2023-01-04T06:31:38.142Z,4.97
2023-01-04T06:34:04.533Z,2.57
2023-01-04T06:36:30.986Z,4.17
2023-01-04T06:39:00.734Z,8.00
2023-01-04T06:41:27.061Z,3.10
2023-01-04T06:43:53.513Z,12.97
2023-01-04T06:46:20.218Z,3.60
2023-01-04T06:48:46.693Z,10.03
2023-01-04T06:51:13.158Z,7.10
2023-01-04T06:53:39.537Z,7.97
2023-01-04T06:56:06.696Z,9.20
2023-01-04T06:58:32.986Z,13.97
2023-01-04T07:00:59.347Z,6.53
2023-01-04T07:03:25.908Z,10.23
2023-01-04T07:05:52.379Z,7.53
2023-01-04T07:08:18.684Z,13.37
2023-01-04T07:10:45.241Z,12.07
2023-01-04T07:13:11.954Z,8.67
2023-01-04T07:15:40.838Z,11.07
2023-01-04T07:18:08.575Z,9.40
2023-01-04T07:20:35.215Z,7.33
2023-01-04T07:23:01.619Z,6.50
2023-01-04T07:25:27.937Z,8.07
2023-01-04T07:27:54.961Z,10.27
2023-01-04T07:30:22.112Z,7.43
2023-01-04T07:32:48.719Z,11.10
2023-01-04T07:35:15.148Z,11.23
2023-01-04T07:37:42.552Z,12.03
2023-01-04T07:40:09.130Z,6.27
2023-01-04T07:42:36.070Z,15.17
2023-01-04T07:45:02.758Z,9.37
2023-01-04T07:47:29.129Z,7.10
2023-01-04T07:49:55.487Z,4.23
2023-01-04T07:52:21.863Z,9.80
2023-01-04T07:54:48.356Z,9.47
2023-01-04T07:57:14.800Z,5.10
2023-01-04T07:59:41.145Z,8.00
2023-01-04T08:02:10.216Z,8.20
2023-01-04T08:04:36.826Z,11.20
2023-01-04T08:07:03.254Z,15.53
2023-01-04T08:09:29.755Z,6.63
2023-01-04T08:11:56.179Z,13.87
2023-01-04T08:14:23.410Z,23.27
2023-01-04T08:16:49.861Z,12.40
2023-01-04T08:19:20.477Z,14.13
2023-01-04T08:21:47.581Z,15.50
2023-01-04T08:24:14.973Z,12.57
2023-01-04T08:26:41.647Z,8.07
2023-01-04T08:29:08.011Z,12.23
2023-01-04T08:31:34.537Z,8.73
2023-01-04T08:34:02.079Z,8.87
2023-01-04T08:36:29.419Z,9.03
2023-01-04T08:38:59.830Z,18.53
2023-01-04T08:41:56.791Z,18.83
2023-01-04T08:44:14.380Z,27.30
2023-01-04T08:46:40.925Z,17.30
2023-01-04T08:49:07.363Z,25.70
2023-01-04T08:51:34.151Z,16.43
2023-01-04T08:54:00.439Z,28.57
2023-01-04T08:56:26.928Z,19.80
2023-01-04T08:58:53.289Z,8.23
2023-01-04T09:01:19.696Z,30.73
2023-01-04T09:03:46.196Z,24.07
2023-01-04T09:06:13.872Z,17.00
2023-01-04T09:08:41.036Z,11.60
2023-01-04T09:11:07.366Z,26.20
2023-01-04T09:13:34.516Z,23.37
2023-01-04T09:16:02.033Z,23.77
2023-01-04T09:18:32.794Z,13.20
2023-01-04T09:21:01.448Z,28.77
2023-01-04T09:23:28.965Z,17.33
2023-01-04T09:25:55.301Z,32.37
2023-01-04T09:28:21.642Z,15.00
2023-01-04T09:30:48.026Z,19.07
2023-01-04T09:33:14.334Z,25.97
2023-01-04T09:35:40.753Z,26.40
2023-01-04T09:38:07.095Z,14.67
2023-01-04T09:40:36.422Z,11.80
2023-01-04T09:43:21.249Z,17.87
2023-01-04T09:45:49.724Z,19.27
2023-01-04T09:48:25.155Z,27.40
2023-01-04T09:51:00.806Z,17.77
2023-01-04T09:53:27.119Z,22.83
2023-01-04T09:55:55.020Z,19.83
2023-01-04T09:58:27.508Z,25.20
2023-01-04T10:01:00.127Z,11.63
2023-01-04T10:03:34.684Z,8.83
2023-01-04T10:06:01.933Z,18.83
2023-01-04T10:08:31.099Z,19.43
2023-01-04T10:11:00.181Z,12.63
2023-01-04T10:13:45.541Z,8.80
2023-01-04T10:16:30.362Z,15.73
2023-01-04T10:21:08.498Z,16.10
2023-01-04T10:22:25.012Z,20.50
2023-01-04T10:25:00.362Z,18.63
2023-01-04T10:27:40.855Z,15.20
2023-01-04T10:30:18.198Z,12.63
2023-01-04T10:32:45.770Z,11.83
2023-01-04T10:35:15.211Z,3.83
2023-01-04T10:37:41.803Z,9.73
2023-01-04T10:40:15.479Z,18.07
2023-01-04T10:43:02.109Z,7.70
2023-01-04T10:45:34.768Z,10.47
2023-01-04T10:48:13.258Z,12.30
2023-01-04T10:50:42.782Z,3.90
2023-01-04T10:53:20.726Z,7.63
2023-01-04T10:56:25.303Z,5.20
2023-01-04T10:58:44.398Z,6.87
2023-01-04T11:01:31.919Z,3.50
2023-01-04T11:04:17.360Z,8.47
2023-01-04T11:06:52.551Z,8.47
2023-01-04T11:09:26.974Z,10.63
2023-01-04T11:11:57.042Z,15.07
2023-01-04T11:14:25.308Z,6.47
2023-01-04T11:16:54.217Z,14.90
2023-01-04T11:19:20.716Z,12.17
2023-01-04T11:21:52.703Z,10.20
2023-01-04T11:24:34.655Z,12.07
2023-01-04T11:27:06.203Z,9.73
2023-01-04T11:29:40.534Z,13.50
2023-01-04T11:32:27.750Z,13.63
2023-01-04T11:34:56.901Z,14.63
2023-01-04T11:37:23.208Z,12.03
2023-01-04T11:39:49.571Z,12.47
2023-01-04T11:42:22.069Z,7.70
2023-01-04T11:44:58.593Z,8.30
2023-01-04T11:47:28.320Z,11.23
2023-01-04T11:49:56.421Z,14.27
2023-01-04T11:52:25.616Z,12.00
2023-01-04T11:54:52.009Z,17.90
2023-01-04T11:57:19.131Z,18.77
2023-01-04T11:59:45.548Z,14.50
2023-01-04T12:02:50.586Z,19.63
2023-01-04T12:05:15.883Z,13.37
2023-01-04T12:07:42.412Z,19.57
2023-01-04T12:10:21.399Z,22.23
2023-01-04T12:12:48.224Z,19.63
2023-01-04T12:15:19.288Z,12.50
2023-01-04T12:18:14.845Z,21.27
2023-01-04T12:20:41.159Z,17.80
2023-01-04T12:23:08.948Z,11.47
2023-01-04T12:25:35.218Z,13.20
2023-01-04T12:28:01.730Z,10.03
2023-01-04T12:30:36.943Z,11.73
2023-01-04T12:33:22.154Z,14.43
2023-01-04T12:36:05.044Z,20.80
2023-01-04T12:38:50.099Z,9.33
2023-01-04T12:41:16.520Z,6.30
2023-01-04T12:43:46.892Z,6.53
2023-01-04T12:46:52.547Z,8.53
2023-01-04T12:49:24.791Z,9.63
2023-01-04T12:54:58.666Z,7.57
2023-01-04T12:57:28.328Z,11.90
2023-01-04T12:59:57.456Z,11.83
2023-01-04T13:02:25.065Z,5.20
2023-01-04T13:05:09.666Z,14.97
2023-01-04T13:07:46.365Z,13.83
2023-01-04T13:10:32.093Z,8.27
2023-01-04T13:13:13.494Z,9.53
2023-01-04T13:15:42.937Z,7.13
2023-01-04T13:18:28.155Z,11.37
2023-01-04T13:20:55.380Z,15.53
2023-01-04T13:23:22.341Z,13.90
2023-01-04T13:25:48.781Z,12.57
2023-01-04T13:28:18.749Z,9.73
2023-01-04T13:30:45.610Z,15.00
2023-01-04T13:33:28.160Z,20.23
2023-01-04T13:36:10.363Z,10.47
2023-01-04T13:38:39.326Z,18.73
2023-01-04T13:41:19.625Z,7.70
2023-01-04T13:44:03.112Z,14.63
2023-01-04T13:46:29.650Z,9.57
2023-01-04T13:48:59.998Z,10.57
2023-01-04T13:51:36.437Z,8.37
2023-01-04T13:54:04.768Z,18.23
2023-01-04T13:56:32.410Z,13.20
2023-01-04T13:58:59.044Z,15.20
2023-01-04T14:01:32.729Z,13.73
2023-01-04T14:04:00.823Z,14.50
2023-01-04T14:06:36.390Z,14.30
2023-01-04T14:09:22.848Z,14.47
2023-01-04T14:12:06.680Z,19.53
2023-01-04T14:14:39.941Z,16.27
2023-01-04T14:17:12.484Z,10.10
2023-01-04T14:19:43.452Z,15.47
2023-01-04T14:22:19.704Z,12.07
2023-01-04T14:27:40.621Z,21.33
2023-01-04T14:30:16.103Z,15.30
2023-01-04T14:32:42.490Z,11.00
2023-01-04T14:35:13.353Z,13.00
2023-01-04T14:37:40.871Z,20.10
2023-01-04T14:40:23.697Z,9.00
2023-01-04T14:42:50.139Z,9.63
2023-01-04T14:45:16.542Z,14.20
2023-01-04T14:47:43.025Z,9.97
2023-01-04T14:50:09.646Z,13.27
2023-01-04T14:52:36.046Z,13.93
2023-01-04T14:55:04.928Z,8.23
2023-01-04T14:57:33.271Z,17.37
2023-01-04T14:59:59.615Z,16.30
2023-01-04T15:02:27.174Z,20.50
2023-01-04T15:04:53.748Z,18.30
2023-01-04T15:07:37.988Z,17.27
2023-01-04T15:10:04.969Z,8.77
2023-01-04T15:12:31.279Z,10.03
2023-01-04T15:14:57.594Z,14.60
2023-01-04T15:17:23.952Z,12.80
2023-01-04T15:19:50.395Z,15.27
2023-01-04T15:22:16.797Z,18.57
2023-01-04T15:24:43.243Z,20.67
2023-01-04T15:27:09.758Z,14.03
2023-01-04T15:29:36.251Z,16.40
2023-01-04T15:32:02.667Z,19.10
2023-01-04T15:34:29.183Z,20.80
2023-01-04T15:36:55.496Z,19.13
2023-01-04T15:39:22.110Z,21.93
2023-01-04T15:42:08.271Z,15.67
2023-01-04T15:44:34.652Z,19.70
2023-01-04T15:47:01.013Z,18.33
2023-01-04T15:49:28.889Z,22.63
2023-01-04T15:51:55.320Z,15.30
2023-01-04T15:54:24.242Z,16.20
2023-01-04T15:56:50.557Z,26.67
2023-01-04T15:59:17.409Z,23.23
2023-01-04T16:01:43.760Z,13.17
2023-01-04T16:04:11.650Z,20.93
2023-01-04T16:06:38.180Z,12.30
2023-01-04T16:09:05.561Z,24.33
2023-01-04T16:11:32.414Z,14.23
2023-01-04T16:13:58.875Z,16.03
2023-01-04T16:16:27.726Z,22.63
2023-01-04T16:18:55.338Z,20.77
2023-01-04T16:21:26.876Z,23.97
2023-01-04T16:23:58.415Z,22.53
2023-01-04T16:26:28.367Z,21.80
2023-01-04T16:28:55.080Z,13.93
2023-01-04T16:31:23.141Z,17.40
2023-01-04T16:33:53.534Z,23.57
2023-01-04T16:36:19.975Z,28.47
2023-01-04T16:38:46.518Z,13.97
2023-01-04T16:41:14.337Z,15.43
2023-01-04T16:43:44.878Z,27.93
2023-01-04T16:46:14.436Z,24.87
2023-01-04T16:48:41.459Z,26.13
2023-01-04T16:51:08.571Z,25.87
2023-01-04T16:53:35.601Z,26.20
2023-01-04T16:56:09.444Z,21.70
2023-01-04T16:58:35.917Z,27.60
2023-01-04T17:01:09.188Z,27.20
2023-01-04T17:03:35.978Z,26.17
2023-01-04T17:06:06.448Z,22.80
2023-01-04T17:08:32.885Z,22.37
2023-01-04T17:11:38.610Z,22.90
2023-01-04T17:13:51.099Z,24.80
2023-01-04T17:16:17.636Z,38.03
2023-01-04T17:18:44.410Z,28.93
2023-01-04T17:21:33.290Z,24.97
2023-01-04T17:23:58.926Z,36.73
2023-01-04T17:26:26.610Z,34.50
2023-01-04T17:28:55.782Z,29.07
2023-01-04T17:31:23.482Z,30.30
2023-01-04T17:33:50.132Z,29.23
2023-01-04T17:36:18.027Z,27.80
2023-01-04T17:38:45.222Z,34.37
2023-01-04T17:41:15.976Z,34.70
2023-01-04T17:43:43.225Z,35.50
2023-01-04T17:46:10.898Z,38.10
2023-01-04T17:48:37.628Z,34.27
2023-01-04T17:51:05.033Z,31.47
2023-01-04T17:53:31.420Z,38.80
2023-01-04T17:56:01.406Z,35.17
2023-01-04T17:58:28.231Z,25.13
2023-01-04T18:00:54.615Z,37.03
2023-01-04T18:03:20.971Z,28.30
2023-01-04T18:05:51.930Z,30.67
2023-01-04T18:08:25.391Z,29.27
2023-01-04T18:11:07.314Z,31.60
2023-01-04T18:13:35.226Z,42.27
2023-01-04T18:16:23.079Z,33.37
2023-01-04T18:18:48.816Z,43.90
2023-01-04T18:21:28.455Z,25.80
2023-01-04T18:26:36.753Z,23.70
2023-01-04T18:29:08.180Z,45.93
2023-01-04T18:31:34.833Z,32.37
2023-01-04T18:34:01.283Z,43.17
2023-01-04T18:36:31.984Z,28.67
2023-01-04T18:38:58.992Z,46.00
2023-01-04T18:41:27.196Z,45.53
2023-01-04T18:44:13.319Z,31.83
2023-01-04T18:46:41.501Z,33.40
2023-01-04T18:49:08.002Z,42.57
2023-01-04T18:51:37.209Z,40.20
2023-01-04T18:54:03.534Z,33.80
2023-01-04T18:56:29.945Z,26.77
2023-01-04T18:58:56.259Z,33.27
2023-01-04T19:01:23.284Z,28.33
2023-01-04T19:03:49.725Z,34.07
2023-01-04T19:06:17.776Z,28.97
2023-01-04T19:08:44.479Z,33.43
2023-01-04T19:11:11.219Z,43.90
2023-01-04T19:13:38.136Z,30.67
2023-01-04T19:16:08.450Z,20.07
2023-01-04T19:18:34.924Z,18.93
2023-01-04T19:21:01.575Z,39.63
2023-01-04T19:23:27.885Z,31.30
2023-01-04T19:25:54.465Z,32.37
2023-01-04T19:28:21.062Z,27.73
2023-01-04T19:30:47.452Z,37.83
2023-01-04T19:33:14.070Z,34.57
2023-01-04T19:35:44.334Z,31.50
2023-01-04T19:38:10.905Z,31.00
2023-01-04T19:40:37.301Z,37.37
2023-01-04T19:43:04.191Z,35.93
2023-01-04T19:45:30.532Z,37.33
2023-01-04T19:47:57.020Z,23.43
2023-01-04T19:50:24.237Z,24.17
2023-01-04T19:52:50.705Z,33.63
2023-01-04T19:55:17.128Z,31.63
2023-01-04T19:57:43.510Z,38.27
2023-01-04T20:00:12.286Z,35.60
2023-01-04T20:02:38.951Z,32.57
2023-01-04T20:05:07.176Z,38.60
2023-01-04T20:07:33.583Z,37.50
2023-01-04T20:09:59.907Z,35.40
2023-01-04T20:12:26.254Z,48.77
2023-01-04T20:14:52.701Z,42.57
2023-01-04T20:17:19.052Z,37.73
2023-01-04T20:19:46.427Z,37.37
2023-01-04T20:22:12.925Z,33.50
2023-01-04T20:24:39.344Z,39.90
2023-01-04T20:27:05.781Z,38.57
2023-01-04T20:29:33.290Z,41.73
2023-01-04T20:32:00.751Z,28.03
2023-01-04T20:34:27.298Z,32.83
2023-01-04T20:36:53.604Z,35.73
2023-01-04T20:39:19.988Z,26.97
2023-01-04T20:42:04.856Z,25.40
2023-01-04T20:44:31.252Z,39.67
2023-01-04T20:46:57.646Z,32.93
2023-01-04T20:49:24.108Z,32.00
2023-01-04T20:51:50.469Z,29.93
2023-01-04T20:54:16.797Z,37.37
2023-01-04T20:56:43.243Z,34.27
2023-01-04T20:59:09.564Z,32.00
2023-01-04T21:01:36.772Z,23.77
2023-01-04T21:04:03.301Z,30.87
2023-01-04T21:06:30.660Z,29.50
2023-01-04T21:08:57.264Z,41.80
2023-01-04T21:11:23.783Z,32.80
2023-01-04T21:13:51.232Z,33.63
2023-01-04T21:16:17.678Z,38.30
2023-01-04T21:18:44.208Z,33.13
2023-01-04T21:21:14.988Z,41.07
2023-01-04T21:23:43.199Z,29.43
2023-01-04T21:26:12.145Z,38.27
2023-01-04T21:28:41.702Z,40.87
2023-01-04T21:31:12.281Z,31.60
2023-01-04T21:33:39.282Z,28.30
2023-01-04T21:36:09.630Z,26.33
2023-01-04T21:38:36.001Z,39.70
2023-01-04T21:41:06.962Z,32.63
2023-01-04T21:43:33.283Z,38.83
2023-01-04T21:46:03.818Z,38.43
2023-01-04T21:48:30.272Z,43.93
2023-01-04T21:50:58.714Z,33.10
2023-01-04T21:53:25.147Z,35.37
2023-01-04T21:56:01.451Z,31.90
2023-01-04T21:58:28.105Z,26.40
2023-01-04T22:00:54.983Z,38.70
2023-01-04T22:03:21.626Z,47.43
2023-01-04T22:05:47.947Z,37.80
2023-01-04T22:08:14.525Z,28.17
2023-01-04T22:10:41.007Z,33.07
2023-01-04T22:13:08.618Z,37.40
2023-01-04T22:15:38.755Z,22.73
2023-01-04T22:18:05.418Z,25.73
2023-01-04T22:20:31.734Z,27.13
2023-01-04T22:22:58.312Z,31.30
2023-01-04T22:25:24.772Z,34.77
2023-01-04T22:27:51.474Z,29.17
2023-01-04T22:30:17.826Z,26.80
2023-01-04T22:32:44.170Z,40.47
2023-01-04T22:35:10.605Z,33.00
2023-01-04T22:37:37.058Z,29.70
2023-01-04T22:40:03.468Z,23.50
2023-01-04T22:42:29.810Z,35.57
2023-01-04T22:44:56.097Z,31.97
2023-01-04T22:47:22.410Z,29.60
2023-01-04T22:49:48.727Z,22.07
2023-01-04T22:52:15.046Z,20.97
2023-01-04T22:54:41.360Z,25.43
2023-01-04T22:57:07.756Z,35.60
2023-01-04T22:59:34.116Z,29.67
2023-01-04T23:02:00.523Z,29.90
2023-01-04T23:04:27.019Z,26.87
2023-01-04T23:06:53.388Z,25.17
2023-01-04T23:09:19.781Z,23.50
2023-01-04T23:11:46.312Z,31.43
2023-01-04T23:14:14.184Z,38.20
2023-01-04T23:16:40.619Z,33.27
2023-01-04T23:19:07.365Z,26.03
2023-01-04T23:21:34.460Z,38.90
2023-01-04T23:24:01.290Z,38.93
2023-01-04T23:26:29.570Z,30.63
2023-01-04T23:28:56.253Z,25.53
2023-01-04T23:31:23.778Z,26.53
2023-01-04T23:33:54.573Z,21.03
2023-01-04T23:36:22.148Z,27.57
2023-01-04T23:38:50.394Z,19.73
2023-01-04T23:41:16.793Z,30.50
2023-01-04T23:43:43.161Z,27.43
2023-01-04T23:46:12.013Z,40.33
2023-01-04T23:48:38.434Z,33.03
2023-01-04T23:51:05.120Z,26.83
2023-01-04T23:53:31.508Z,30.83
2023-01-04T23:55:58.785Z,30.57
2023-01-04T23:58:27.389Z,29.20
